Time;durP1;ratioP1;P1;durP2;ratioP2;P2;SDS_P1;SDS_P2;PMS_P1;PMS_P2;Temp;Humidity;BMP_temperature;BMP_pressure;BME280_temperature;BME280_humidity;BME280_pressure;Samples;Min_cycle;Max_cycle;Signal;HPM_P1;HPM_P2
2022/11/18 00:02:15;;;;;;;26.73;21.48;;;4.00;99.90;;;;;;5071794;28;20245;-50
2022/11/18 00:04:42;;;;;;;26.00;21.92;;;4.30;99.90;;;;;;5072298;28;20191;-49
2022/11/18 00:07:09;;;;;;;27.65;21.67;;;4.30;99.90;;;;;;5072046;28;20203;-49
2022/11/18 00:09:36;;;;;;;25.20;20.98;;;4.60;99.90;;;;;;5071816;28;20245;-50
2022/11/18 00:15:00;;;;;;;23.92;20.45;;;4.40;99.90;;;;;;4990412;28;20686;-50
2022/11/18 00:17:26;;;;;;;30.98;22.50;;;4.40;99.90;;;;;;5052193;28;20227;-50
2022/11/18 00:19:53;;;;;;;26.52;21.60;;;4.20;99.90;;;;;;5071164;28;20206;-49
2022/11/18 00:22:19;;;;;;;27.17;19.33;;;4.30;99.90;;;;;;5071685;28;20238;-50
2022/11/18 00:24:46;;;;;;;34.20;21.20;;;4.10;99.90;;;;;;5071917;28;20199;-50
2022/11/18 00:27:18;;;;;;;24.83;20.55;;;4.30;99.90;;;;;;5071727;28;20695;-49
2022/11/18 00:29:51;;;;;;;22.70;19.95;;;4.20;99.90;;;;;;5053621;28;20244;-50
2022/11/18 00:36:10;;;;;;;23.70;20.13;;;4.20;99.90;;;;;;5072063;28;20213;-49
2022/11/18 00:38:38;;;;;;;25.15;19.80;;;4.00;99.90;;;;;;5071305;28;20223;-50
2022/11/18 00:41:06;;;;;;;23.77;19.80;;;4.10;99.90;;;;;;5071621;28;20203;-50
2022/11/18 00:43:32;;;;;;;23.17;19.92;;;4.40;99.90;;;;;;5072020;28;20219;-50
2022/11/18 00:45:58;;;;;;;26.27;22.15;;;4.20;99.90;;;;;;5072053;28;20278;-49
2022/11/18 00:48:25;;;;;;;27.27;20.80;;;3.50;99.90;;;;;;5071411;28;20191;-50
2022/11/18 00:50:54;;;;;;;23.25;19.58;;;4.00;99.90;;;;;;5071540;28;20199;-50
2022/11/18 00:53:23;;;;;;;24.08;20.20;;;3.90;99.90;;;;;;5071481;28;20215;-49
2022/11/18 00:55:50;;;;;;;20.45;18.15;;;3.50;99.90;;;;;;5071567;28;20203;-50
2022/11/18 00:58:17;;;;;;;24.45;19.45;;;4.20;99.90;;;;;;5053371;28;20219;-49
2022/11/18 01:00:47;;;;;;;26.45;21.42;;;3.90;99.90;;;;;;5071204;28;20195;-50
2022/11/18 01:03:14;;;;;;;25.60;18.80;;;3.60;99.90;;;;;;5071534;28;20230;-49
2022/11/18 01:05:41;;;;;;;25.52;19.67;;;3.50;99.90;;;;;;5071432;28;20192;-49
2022/11/18 01:08:09;;;;;;;24.90;20.85;;;3.90;99.90;;;;;;5071455;28;20192;-49
2022/11/18 01:10:39;;;;;;;21.80;19.38;;;3.80;99.90;;;;;;5071187;28;20196;-49
2022/11/18 01:13:19;;;;;;;25.63;20.42;;;3.70;99.90;;;;;;5071271;28;20220;-50
2022/11/18 01:15:47;;;;;;;24.77;19.95;;;3.50;99.90;;;;;;5071402;28;20278;-52
2022/11/18 01:18:15;;;;;;;22.83;19.75;;;4.00;99.90;;;;;;5071577;28;20219;-50
2022/11/18 01:20:42;;;;;;;25.75;21.30;;;4.00;99.90;;;;;;5052868;28;20573;-50
2022/11/18 01:23:09;;;;;;;23.98;20.25;;;3.80;99.90;;;;;;5071157;28;20707;-49
2022/11/18 01:25:36;;;;;;;22.70;18.58;;;4.00;99.90;;;;;;5071202;28;20245;-50
2022/11/18 01:28:06;;;;;;;22.58;20.20;;;3.30;99.90;;;;;;5053390;28;20199;-50
2022/11/18 01:30:34;;;;;;;21.52;19.08;;;3.90;99.90;;;;;;5070992;28;20714;-50
2022/11/18 01:33:01;;;;;;;24.27;21.63;;;3.70;99.90;;;;;;5073196;28;20619;-49
2022/11/18 01:35:28;;;;;;;21.13;18.83;;;3.80;99.90;;;;;;5075142;28;20203;-49
2022/11/18 01:37:54;;;;;;;21.45;19.25;;;3.90;99.90;;;;;;5074966;28;20218;-49
2022/11/18 01:40:21;;;;;;;25.15;19.38;;;3.70;99.90;;;;;;5075015;28;20660;-49
2022/11/18 01:42:47;;;;;;;24.75;21.15;;;3.60;99.90;;;;;;5074992;28;20402;-49
2022/11/18 01:45:29;;;;;;;23.80;19.85;;;3.40;99.90;;;;;;5075104;28;20210;-50
2022/11/18 01:48:01;;;;;;;25.05;20.95;;;3.40;99.90;;;;;;5074986;28;20191;-49
2022/11/18 01:50:29;;;;;;;22.88;20.42;;;3.00;99.90;;;;;;5074239;28;20671;-49
2022/11/18 01:53:00;;;;;;;23.75;20.23;;;3.40;99.90;;;;;;5074359;28;20211;-49
2022/11/18 01:55:31;;;;;;;23.80;21.17;;;3.70;99.90;;;;;;5074504;28;20199;-49
2022/11/18 01:58:03;;;;;;;24.50;20.52;;;3.70;99.90;;;;;;5074400;28;20211;-50
2022/11/18 02:00:31;;;;;;;28.00;22.48;;;3.70;99.90;;;;;;5074052;28;20555;-49
2022/11/18 02:03:01;;;;;;;24.77;19.75;;;3.40;99.90;;;;;;5056307;28;20214;-49
2022/11/18 02:05:29;;;;;;;25.00;21.23;;;3.80;99.90;;;;;;5074230;28;20206;-49
2022/11/18 02:07:56;;;;;;;26.33;21.63;;;3.40;99.90;;;;;;5074283;28;20199;-49
2022/11/18 02:10:24;;;;;;;25.38;20.92;;;3.70;99.90;;;;;;5073822;28;20202;-49
2022/11/18 02:12:53;;;;;;;26.88;21.08;;;3.50;99.90;;;;;;5074091;28;20215;-50
2022/11/18 02:15:27;;;;;;;26.85;20.70;;;3.70;99.90;;;;;;5074091;28;20274;-50
2022/11/18 02:18:03;;;;;;;25.80;20.45;;;3.10;99.90;;;;;;5074036;28;20207;-49
2022/11/18 02:20:33;;;;;;;24.65;19.55;;;3.60;99.90;;;;;;5073816;28;20199;-50
2022/11/18 02:23:48;;;;;;;23.83;21.25;;;3.40;99.90;;;;;;5073758;28;20226;-49
2022/11/18 02:26:54;;;;;;;23.85;20.30;;;3.60;99.90;;;;;;4992468;28;20253;-49
2022/11/18 02:29:26;;;;;;;25.30;20.20;;;3.40;99.90;;;;;;4992053;28;20564;-49
2022/11/18 02:31:58;;;;;;;25.60;20.55;;;3.90;99.90;;;;;;5061007;28;20591;-48
2022/11/18 02:34:37;;;;;;;23.98;20.25;;;3.30;99.90;;;;;;5055904;28;20590;-48
2022/11/18 02:37:10;;;;;;;23.65;20.73;;;3.60;99.90;;;;;;5073857;28;20567;-49
2022/11/18 02:39:39;;;;;;;24.13;20.70;;;3.40;99.90;;;;;;5073307;28;20223;-48
2022/11/18 02:42:11;;;;;;;25.80;19.80;;;3.40;99.90;;;;;;5073663;28;20652;-49
2022/11/18 02:44:43;;;;;;;22.50;19.70;;;3.50;99.90;;;;;;5073485;28;20198;-49
2022/11/18 02:47:13;;;;;;;24.23;19.95;;;3.40;99.90;;;;;;5073505;28;20213;-49
2022/11/18 02:49:44;;;;;;;24.48;20.00;;;3.30;99.90;;;;;;5073373;28;20199;-50
2022/11/18 02:52:12;;;;;;;23.50;19.77;;;3.10;99.90;;;;;;5073178;28;20196;-49
2022/11/18 02:54:41;;;;;;;25.60;21.67;;;3.30;99.90;;;;;;5073304;28;20566;-50
2022/11/18 02:57:09;;;;;;;23.00;20.52;;;3.40;99.90;;;;;;5073235;28;20196;-50
2022/11/18 02:59:35;;;;;;;26.88;22.50;;;3.20;99.90;;;;;;5072836;28;20219;-49
2022/11/18 03:02:04;;;;;;;26.02;21.73;;;3.10;99.90;;;;;;5072988;28;20207;-50
2022/11/18 03:04:51;;;;;;;26.05;21.33;;;3.20;99.90;;;;;;5073173;28;20683;-49
2022/11/18 03:07:27;;;;;;;26.50;20.23;;;3.20;99.90;;;;;;5073087;28;20195;-49
2022/11/18 03:09:59;;;;;;;25.55;22.67;;;3.50;99.90;;;;;;5055134;28;20230;-49
2022/11/18 03:12:36;;;;;;;26.88;22.73;;;3.20;99.90;;;;;;5072960;28;20219;-49
2022/11/18 03:15:11;;;;;;;26.13;22.95;;;3.50;99.90;;;;;;5072981;28;20198;-49
2022/11/18 03:17:47;;;;;;;26.05;22.67;;;3.30;99.90;;;;;;5072970;28;20191;-49
2022/11/18 03:20:21;;;;;;;24.75;21.20;;;3.40;99.90;;;;;;5072397;28;20202;-49
2022/11/18 03:22:53;;;;;;;27.25;22.15;;;3.20;99.90;;;;;;5072854;28;20321;-49
2022/11/18 03:25:23;;;;;;;30.60;23.23;;;3.00;99.90;;;;;;5073025;28;20210;-48
2022/11/18 03:27:56;;;;;;;25.17;21.08;;;3.20;99.90;;;;;;5072641;28;20191;-50
2022/11/18 03:30:25;;;;;;;28.05;22.50;;;2.90;99.90;;;;;;5072181;28;20195;-49
2022/11/18 03:32:58;;;;;;;25.65;22.38;;;3.10;99.90;;;;;;5054670;28;20215;-49
2022/11/18 03:35:29;;;;;;;29.88;25.27;;;2.90;99.90;;;;;;5055047;28;20231;-50
2022/11/18 03:38:02;;;;;;;28.92;23.67;;;3.10;99.90;;;;;;5072496;28;20214;-50
2022/11/18 03:40:32;;;;;;;25.45;21.38;;;3.10;99.90;;;;;;5072146;28;20195;-50
2022/11/18 03:46:50;;;;;;;31.17;24.48;;;3.00;99.90;;;;;;5072563;28;20228;-49
2022/11/18 03:49:22;;;;;;;29.42;23.70;;;3.10;99.90;;;;;;5071993;28;20195;-49
2022/11/18 03:51:54;;;;;;;29.42;23.35;;;2.50;99.90;;;;;;5072386;28;20244;-50
2022/11/18 03:54:24;;;;;;;31.60;23.20;;;2.90;99.90;;;;;;5072415;28;20215;-50
2022/11/18 03:56:56;;;;;;;33.72;24.02;;;3.70;99.90;;;;;;5071869;28;20202;-49
2022/11/18 03:59:27;;;;;;;29.02;22.67;;;2.90;99.90;;;;;;5071889;28;20435;-49
2022/11/18 04:01:57;;;;;;;30.25;24.30;;;3.20;99.90;;;;;;5072076;28;20243;-50
2022/11/18 04:04:26;;;;;;;31.42;25.20;;;3.00;99.90;;;;;;5072159;28;20227;-50
2022/11/18 04:07:01;;;;;;;32.20;25.40;;;2.90;99.90;;;;;;5072109;28;20199;-48
2022/11/18 04:09:52;;;;;;;33.05;24.90;;;2.70;99.90;;;;;;5071830;28;20191;-49
2022/11/18 04:12:23;;;;;;;35.38;26.35;;;2.80;99.90;;;;;;5072062;28;20284;-49
2022/11/18 04:14:54;;;;;;;30.77;23.80;;;3.10;99.90;;;;;;5072314;28;20191;-49
2022/11/18 04:17:22;;;;;;;33.03;24.48;;;2.40;99.90;;;;;;5072437;28;20727;-49
2022/11/18 04:19:50;;;;;;;34.95;27.35;;;2.90;99.90;;;;;;5071890;28;20219;-49
2022/11/18 04:22:20;;;;;;;36.33;26.90;;;3.00;99.90;;;;;;5072017;28;20210;-59
2022/11/18 04:24:47;;;;;;;36.88;26.55;;;2.70;99.90;;;;;;5072408;28;20195;-46
2022/11/18 04:27:14;;;;;;;37.42;27.85;;;2.90;99.90;;;;;;5072329;28;20199;-48
2022/11/18 04:29:40;;;;;;;36.95;26.90;;;3.00;99.90;;;;;;5072533;28;20196;-47
2022/11/18 04:32:07;;;;;;;39.58;29.35;;;2.60;99.90;;;;;;5072789;28;20293;-46
2022/11/18 04:34:33;;;;;;;41.45;30.55;;;2.80;99.90;;;;;;5072629;28;20296;-47
2022/11/18 04:37:01;;;;;;;44.13;30.45;;;2.00;99.90;;;;;;5072222;28;20199;-48
2022/11/18 04:39:28;;;;;;;46.40;31.33;;;2.10;99.90;;;;;;5071793;28;20219;-48
2022/11/18 04:41:58;;;;;;;39.17;29.13;;;2.50;99.90;;;;;;5072348;28;20277;-48
2022/11/18 04:44:26;;;;;;;40.80;29.90;;;2.70;99.90;;;;;;5072137;28;20576;-48
2022/11/18 04:46:53;;;;;;;42.67;30.65;;;2.20;99.90;;;;;;5072014;28;20210;-47
2022/11/18 04:49:21;;;;;;;37.33;28.00;;;2.30;99.90;;;;;;5072051;28;20195;-47
2022/11/18 04:51:48;;;;;;;42.15;29.25;;;2.70;99.90;;;;;;5071878;28;20195;-47
2022/11/18 04:54:17;;;;;;;37.28;28.23;;;2.60;99.90;;;;;;5072131;28;20223;-47
2022/11/18 04:56:44;;;;;;;41.22;29.05;;;2.40;99.90;;;;;;5072184;28;20212;-47
2022/11/18 04:59:12;;;;;;;40.90;30.42;;;2.20;99.90;;;;;;5071576;28;20692;-48
2022/11/18 05:01:39;;;;;;;48.38;30.23;;;2.60;99.90;;;;;;5071745;28;20207;-47
2022/11/18 05:04:07;;;;;;;43.13;32.70;;;2.10;99.90;;;;;;5072100;28;20226;-47
2022/11/18 05:06:34;;;;;;;39.80;30.17;;;2.40;99.90;;;;;;5071925;28;20195;-47
2022/11/18 05:09:01;;;;;;;43.10;30.38;;;2.80;99.90;;;;;;5074999;28;20196;-48
2022/11/18 05:14:15;;;;;;;39.60;28.05;;;2.60;99.90;;;;;;5075583;28;20216;-46
2022/11/18 05:16:41;;;;;;;38.67;28.35;;;2.40;99.90;;;;;;5075552;28;20567;-47
2022/11/18 05:19:27;;;;;;;44.08;30.45;;;2.30;99.90;;;;;;5075452;28;20223;-48
2022/11/18 05:21:54;;;;;;;40.55;29.65;;;2.20;99.90;;;;;;5075725;28;20195;-47
2022/11/18 05:24:22;;;;;;;41.95;29.40;;;2.30;99.90;;;;;;5057147;28;20269;-48
2022/11/18 05:26:51;;;;;;;39.13;27.30;;;1.80;99.90;;;;;;5075964;28;20206;-48
2022/11/18 05:29:18;;;;;;;40.47;27.30;;;2.50;99.90;;;;;;5074528;28;20652;-48
2022/11/18 05:31:45;;;;;;;39.42;27.17;;;2.50;99.90;;;;;;5074992;28;20191;-50
2022/11/18 05:34:12;;;;;;;41.13;28.90;;;2.30;99.90;;;;;;5074626;28;20219;-49
2022/11/18 05:36:38;;;;;;;35.33;27.02;;;2.30;99.90;;;;;;5074733;28;20203;-47
2022/11/18 05:39:05;;;;;;;38.33;27.10;;;2.50;99.90;;;;;;5074534;28;20223;-47
2022/11/18 05:44:18;;;;;;;38.20;26.55;;;2.40;99.90;;;;;;5074977;28;20215;-48
2022/11/18 05:46:44;;;;;;;32.10;24.55;;;2.50;99.90;;;;;;5074819;28;20204;-47
2022/11/18 05:49:11;;;;;;;32.53;25.05;;;2.60;99.90;;;;;;5074354;28;20191;-47
2022/11/18 05:51:38;;;;;;;31.40;23.88;;;2.50;99.90;;;;;;5074649;28;20206;-48
2022/11/18 05:54:08;;;;;;;31.05;23.55;;;2.20;99.90;;;;;;5074452;28;20587;-46
2022/11/18 05:56:37;;;;;;;35.05;25.75;;;2.20;99.90;;;;;;5056403;28;20213;-46
2022/11/18 05:59:03;;;;;;;30.70;23.05;;;2.50;99.90;;;;;;5074137;28;20215;-47
2022/11/18 06:01:37;;;;;;;28.33;21.90;;;2.40;99.90;;;;;;5074685;28;20196;-49
2022/11/18 06:04:08;;;;;;;30.85;21.92;;;2.40;99.90;;;;;;5074527;28;20226;-47
2022/11/18 06:06:36;;;;;;;25.02;19.55;;;2.40;99.90;;;;;;5074368;28;20265;-49
2022/11/18 06:09:05;;;;;;;27.08;21.15;;;2.20;99.90;;;;;;5073866;28;20191;-47
2022/11/18 06:11:36;;;;;;;24.70;19.17;;;2.20;99.90;;;;;;5074268;28;20660;-47
2022/11/18 06:14:07;;;;;;;31.98;21.35;;;2.50;99.90;;;;;;5074410;28;20742;-48
2022/11/18 06:16:36;;;;;;;25.17;19.42;;;1.60;99.90;;;;;;5074229;28;20559;-47
2022/11/18 06:19:03;;;;;;;24.75;20.05;;;2.40;99.90;;;;;;5073209;28;20218;-49
2022/11/18 06:21:30;;;;;;;27.90;21.20;;;1.80;99.90;;;;;;5073999;28;20534;-47
2022/11/18 06:23:57;;;;;;;27.77;19.33;;;2.00;99.90;;;;;;5073438;28;20233;-48
2022/11/18 06:26:23;;;;;;;24.52;19.23;;;2.00;99.90;;;;;;5073480;28;20644;-48
2022/11/18 06:28:50;;;;;;;25.23;19.08;;;2.30;99.90;;;;;;5073297;28;20609;-47
2022/11/18 06:31:16;;;;;;;27.67;19.42;;;2.40;99.90;;;;;;5073634;28;20199;-48
2022/11/18 06:33:44;;;;;;;24.45;19.67;;;2.30;99.90;;;;;;5073477;28;20215;-48
2022/11/18 06:36:11;;;;;;;25.75;19.45;;;1.70;99.90;;;;;;5073406;28;20196;-49
2022/11/18 06:38:37;;;;;;;26.80;20.13;;;2.30;99.90;;;;;;5072914;28;20204;-47
2022/11/18 06:41:04;;;;;;;23.05;19.23;;;2.30;99.90;;;;;;5073478;28;20321;-48
2022/11/18 06:43:41;;;;;;;26.23;19.20;;;2.40;99.90;;;;;;5073169;28;20233;-48
2022/11/18 06:48:56;;;;;;;26.65;19.75;;;2.10;99.90;;;;;;5072899;28;20251;-48
2022/11/18 06:51:24;;;;;;;26.23;19.58;;;2.30;99.90;;;;;;5072851;28;20192;-49
2022/11/18 06:53:51;;;;;;;25.77;20.05;;;2.10;99.90;;;;;;5072487;28;20357;-47
2022/11/18 06:56:19;;;;;;;25.45;18.60;;;2.40;99.90;;;;;;5073167;28;20195;-48
2022/11/18 06:58:46;;;;;;;22.55;19.77;;;2.00;99.90;;;;;;5072134;28;20195;-48
2022/11/18 07:01:14;;;;;;;28.95;20.92;;;2.40;99.90;;;;;;5072842;28;20635;-47
2022/11/18 07:03:42;;;;;;;24.85;20.20;;;2.40;99.90;;;;;;5072641;28;20221;-47
2022/11/18 07:06:10;;;;;;;26.23;19.85;;;2.10;99.90;;;;;;5072868;28;20196;-48
2022/11/18 07:08:39;;;;;;;27.23;19.98;;;2.20;99.90;;;;;;5072197;28;20191;-47
2022/11/18 07:11:07;;;;;;;29.77;21.60;;;2.40;99.90;;;;;;5072798;28;20202;-48
2022/11/18 07:13:34;;;;;;;25.45;19.98;;;2.10;99.90;;;;;;5072299;28;20223;-48
2022/11/18 07:16:05;;;;;;;24.15;18.92;;;2.20;99.90;;;;;;5072596;28;20202;-48
2022/11/18 07:18:33;;;;;;;26.27;19.80;;;2.10;99.90;;;;;;5072082;28;20278;-49
2022/11/18 07:21:02;;;;;;;24.55;20.10;;;2.20;99.90;;;;;;5072309;28;20225;-48
2022/11/18 07:23:30;;;;;;;24.73;19.20;;;2.20;99.90;;;;;;5072231;28;20276;-48
2022/11/18 07:25:57;;;;;;;26.35;20.25;;;2.10;99.90;;;;;;5072712;28;20672;-48
2022/11/18 07:28:24;;;;;;;30.08;22.08;;;2.30;99.90;;;;;;5073143;28;20202;-50
2022/11/18 07:30:51;;;;;;;25.27;19.20;;;2.30;99.90;;;;;;5072442;28;20522;-48
2022/11/18 07:33:18;;;;;;;25.40;20.33;;;1.90;99.90;;;;;;5072653;28;20226;-48
2022/11/18 07:35:44;;;;;;;27.60;21.30;;;2.30;99.90;;;;;;5072528;28;20263;-48
2022/11/18 07:38:11;;;;;;;25.67;19.52;;;2.40;99.90;;;;;;5072419;28;20199;-49
2022/11/18 07:40:39;;;;;;;28.02;19.95;;;2.50;99.90;;;;;;5071245;28;20215;-49
2022/11/18 07:43:09;;;;;;;23.13;18.20;;;2.20;99.90;;;;;;5071703;28;20585;-47
2022/11/18 07:45:36;;;;;;;27.75;20.98;;;2.30;99.90;;;;;;5071969;28;20736;-48
2022/11/18 07:48:02;;;;;;;28.02;21.35;;;2.00;99.90;;;;;;5053698;28;20256;-50
2022/11/18 07:50:29;;;;;;;29.05;21.35;;;2.50;99.90;;;;;;5071420;28;20198;-49
2022/11/18 07:52:57;;;;;;;27.40;20.95;;;2.00;99.90;;;;;;5071702;28;20729;-48
2022/11/18 07:55:23;;;;;;;35.13;20.50;;;2.50;99.90;;;;;;5071664;28;20203;-48
2022/11/18 07:57:51;;;;;;;28.25;20.25;;;2.20;99.90;;;;;;5071705;28;20206;-48
2022/11/18 08:00:19;;;;;;;26.63;20.98;;;2.20;99.90;;;;;;5071132;28;20219;-48
2022/11/18 08:02:49;;;;;;;25.65;20.42;;;2.50;99.90;;;;;;5071309;28;20227;-49
2022/11/18 08:05:16;;;;;;;25.92;19.75;;;2.00;99.90;;;;;;5071545;28;20571;-48
2022/11/18 08:07:42;;;;;;;22.85;18.02;;;2.30;99.90;;;;;;5071412;28;20719;-48
2022/11/18 08:10:09;;;;;;;29.08;22.33;;;2.30;99.90;;;;;;5071369;28;20198;-48
2022/11/18 08:12:36;;;;;;;28.40;20.75;;;2.60;99.90;;;;;;5071314;28;20607;-48
2022/11/18 08:15:04;;;;;;;27.92;19.17;;;2.30;99.90;;;;;;5071636;28;20199;-46
2022/11/18 08:17:33;;;;;;;27.17;20.20;;;2.60;99.90;;;;;;5071723;28;20197;-47
2022/11/18 08:20:00;;;;;;;27.33;21.30;;;2.60;99.90;;;;;;5071065;28;20714;-48
2022/11/18 08:22:26;;;;;;;27.15;20.70;;;2.30;99.90;;;;;;5052946;28;20695;-47
2022/11/18 08:24:53;;;;;;;26.50;19.85;;;2.40;99.90;;;;;;5071359;28;20198;-48
2022/11/18 08:27:20;;;;;;;26.67;21.17;;;2.30;99.90;;;;;;5070967;28;20210;-48
2022/11/18 08:29:46;;;;;;;25.63;20.10;;;2.10;99.90;;;;;;5070941;28;20223;-48
2022/11/18 08:32:14;;;;;;;25.23;19.30;;;2.30;99.90;;;;;;5071189;28;20191;-48
2022/11/18 08:34:41;;;;;;;26.63;20.75;;;2.40;99.90;;;;;;5071164;28;20206;-46
2022/11/18 08:37:07;;;;;;;22.20;17.30;;;2.20;99.90;;;;;;5070991;28;20593;-49
2022/11/18 08:39:34;;;;;;;26.88;19.65;;;2.10;99.90;;;;;;5070547;28;20203;-47
2022/11/18 08:42:01;;;;;;;30.95;19.88;;;1.90;99.90;;;;;;5072859;28;20290;-48
2022/11/18 08:44:27;;;;;;;25.75;19.08;;;1.90;99.90;;;;;;5075372;28;20210;-48
2022/11/18 08:46:54;;;;;;;24.05;18.85;;;1.70;99.90;;;;;;5074971;28;20205;-48
2022/11/18 08:49:22;;;;;;;28.15;19.90;;;2.00;99.90;;;;;;5074517;28;20195;-48
2022/11/18 08:51:48;;;;;;;25.38;19.00;;;2.30;99.90;;;;;;5074959;28;20187;-47
2022/11/18 08:54:15;;;;;;;24.83;19.17;;;2.00;99.90;;;;;;5074483;28;20290;-48
2022/11/18 08:56:42;;;;;;;25.92;19.58;;;1.90;99.90;;;;;;5074812;28;20199;-48
2022/11/18 08:59:09;;;;;;;23.70;19.58;;;2.10;99.90;;;;;;5074472;28;20686;-49
2022/11/18 09:01:36;;;;;;;24.20;19.90;;;1.80;99.90;;;;;;5074726;28;20302;-48
2022/11/18 09:04:03;;;;;;;26.05;20.48;;;1.80;99.90;;;;;;5074682;28;20247;-48
2022/11/18 09:06:31;;;;;;;23.95;17.45;;;1.80;99.90;;;;;;5074757;28;20612;-47
2022/11/18 09:08:57;;;;;;;23.77;18.20;;;2.30;99.90;;;;;;5074571;28;20724;-47
2022/11/18 09:11:26;;;;;;;25.70;20.40;;;2.00;99.90;;;;;;5075061;28;20210;-48
2022/11/18 09:13:53;;;;;;;26.40;20.55;;;2.10;99.90;;;;;;5074740;28;20215;-47
2022/11/18 09:16:22;;;;;;;27.85;19.67;;;1.60;99.90;;;;;;5074844;28;20230;-46
2022/11/18 09:18:48;;;;;;;23.60;19.40;;;2.00;99.90;;;;;;5074270;28;20474;-47
2022/11/18 09:21:15;;;;;;;22.00;17.83;;;2.20;99.90;;;;;;5074309;28;20218;-47
2022/11/18 09:23:44;;;;;;;23.98;19.38;;;2.10;99.90;;;;;;5074189;28;20582;-48
2022/11/18 09:26:13;;;;;;;21.45;16.90;;;1.90;99.90;;;;;;5074698;28;20206;-48
2022/11/18 09:28:40;;;;;;;19.95;15.45;;;1.80;99.90;;;;;;5073987;28;20196;-48
2022/11/18 09:31:08;;;;;;;20.33;17.05;;;1.90;99.90;;;;;;5074054;28;20203;-47
2022/11/18 09:33:35;;;;;;;21.60;16.58;;;1.90;99.90;;;;;;5074183;28;20716;-47
2022/11/18 09:36:01;;;;;;;22.23;17.00;;;2.20;99.90;;;;;;5074118;28;20199;-47
2022/11/18 09:38:29;;;;;;;20.63;15.90;;;1.30;99.90;;;;;;5073943;28;20196;-46
2022/11/18 09:41:05;;;;;;;22.48;16.85;;;2.10;99.90;;;;;;5073965;28;20746;-48
2022/11/18 09:43:42;;;;;;;25.35;15.80;;;1.30;99.90;;;;;;5074222;28;20253;-48
2022/11/18 09:46:23;;;;;;;21.33;15.27;;;2.40;99.90;;;;;;5074068;28;20206;-50
2022/11/18 09:51:38;;;;;;;16.80;13.23;;;1.80;99.90;;;;;;5073969;28;20196;-48
2022/11/18 09:54:10;;;;;;;15.20;13.02;;;2.20;99.90;;;;;;5072597;28;20223;-47
2022/11/18 09:56:39;;;;;;;18.13;12.45;;;2.40;99.90;;;;;;5056112;28;20203;-49
2022/11/18 09:59:05;;;;;;;12.80;11.50;;;2.50;99.90;;;;;;5073668;28;20374;-48
2022/11/18 10:01:32;;;;;;;12.23;9.15;;;2.00;99.90;;;;;;5073778;28;20305;-48
2022/11/18 10:03:59;;;;;;;12.18;9.93;;;2.30;99.90;;;;;;5073975;28;20506;-48
2022/11/18 10:06:28;;;;;;;13.15;10.20;;;2.30;99.90;;;;;;5073796;28;20278;-48
2022/11/18 10:09:06;;;;;;;11.45;9.07;;;1.70;99.90;;;;;;5073601;28;20509;-47
2022/11/18 10:11:40;;;;;;;13.10;9.10;;;2.00;99.90;;;;;;5073505;28;20203;-47
2022/11/18 10:14:20;;;;;;;13.77;10.55;;;1.80;99.90;;;;;;5073561;28;20222;-47
2022/11/18 10:16:54;;;;;;;9.27;8.27;;;1.80;99.90;;;;;;5073640;28;20202;-47
2022/11/18 10:19:29;;;;;;;12.15;9.70;;;1.90;99.90;;;;;;5072802;28;20309;-48
2022/11/18 10:22:07;;;;;;;12.15;9.48;;;1.90;99.90;;;;;;5073589;28;20218;-49
2022/11/18 10:24:39;;;;;;;11.10;9.73;;;2.00;99.90;;;;;;5074101;28;20632;-48
2022/11/18 10:27:11;;;;;;;12.97;8.97;;;2.00;99.90;;;;;;5073126;28;20954;-47
2022/11/18 10:29:38;;;;;;;13.75;10.07;;;1.90;99.90;;;;;;5073155;28;20703;-48
2022/11/18 10:32:07;;;;;;;11.23;10.07;;;2.30;99.90;;;;;;5073098;28;20336;-48
2022/11/18 10:34:35;;;;;;;10.43;8.50;;;2.00;99.90;;;;;;5070056;28;20191;-48
2022/11/18 10:37:05;;;;;;;11.85;8.43;;;1.90;99.90;;;;;;5072986;28;20195;-46
2022/11/18 10:39:31;;;;;;;11.25;9.35;;;2.00;99.90;;;;;;5072345;28;20199;-47
2022/11/18 10:42:02;;;;;;;10.98;8.23;;;1.40;99.90;;;;;;5072978;28;20619;-47
2022/11/18 10:44:35;;;;;;;12.80;9.05;;;2.20;99.90;;;;;;5054745;28;20207;-48
2022/11/18 10:47:26;;;;;;;10.57;8.75;;;2.00;99.90;;;;;;5054662;28;20302;-47
2022/11/18 10:49:54;;;;;;;9.55;8.40;;;2.50;99.90;;;;;;5072392;28;20195;-47
2022/11/18 10:52:21;;;;;;;12.52;8.73;;;2.30;99.90;;;;;;5072344;28;20215;-50
2022/11/18 10:55:08;;;;;;;11.65;8.85;;;2.60;99.90;;;;;;5072636;28;20533;-47
2022/11/18 10:57:38;;;;;;;11.38;8.98;;;2.40;99.90;;;;;;5073032;28;20245;-49
2022/11/18 11:00:31;;;;;;;10.88;8.98;;;2.00;99.90;;;;;;5072163;28;20230;-47
2022/11/18 11:02:58;;;;;;;11.00;9.05;;;2.20;99.90;;;;;;5072386;28;20234;-47
2022/11/18 11:05:26;;;;;;;12.05;9.65;;;2.30;99.90;;;;;;5072518;28;20195;-47
2022/11/18 11:08:02;;;;;;;16.65;9.63;;;2.10;99.90;;;;;;5072318;28;20595;-50
2022/11/18 11:10:29;;;;;;;9.75;8.40;;;2.30;99.90;;;;;;5071711;28;20642;-50
2022/11/18 11:13:00;;;;;;;13.82;9.98;;;2.30;99.90;;;;;;5071805;28;20219;-48
2022/11/18 11:15:35;;;;;;;14.88;9.80;;;2.10;99.90;;;;;;5072320;28;20582;-48
2022/11/18 11:20:58;;;;;;;13.75;9.95;;;2.10;99.90;;;;;;5023871;28;20722;-47
2022/11/18 11:23:25;;;;;;;12.45;9.68;;;2.20;99.90;;;;;;5071692;28;20250;-47
2022/11/18 11:25:57;;;;;;;12.85;9.85;;;2.30;99.90;;;;;;5071990;28;20196;-48
2022/11/18 11:28:30;;;;;;;14.93;11.82;;;2.30;99.90;;;;;;5071753;28;20200;-49
2022/11/18 11:31:09;;;;;;;12.57;10.07;;;2.50;99.90;;;;;;5072224;28;20206;-48
2022/11/18 11:33:42;;;;;;;13.00;10.82;;;2.40;99.90;;;;;;5071957;28;20233;-47
2022/11/18 11:36:21;;;;;;;14.57;9.95;;;2.60;99.90;;;;;;5053739;28;20762;-48
2022/11/18 11:38:57;;;;;;;13.60;9.70;;;2.60;99.90;;;;;;5071533;28;20272;-48
2022/11/18 11:41:27;;;;;;;13.80;9.60;;;2.40;99.90;;;;;;5071897;28;20234;-48
2022/11/18 11:44:07;;;;;;;13.70;10.98;;;2.40;99.90;;;;;;5053535;28;20276;-47
2022/11/18 11:47:45;;;;;;;12.70;9.55;;;2.20;99.90;;;;;;5071664;28;20203;-47
2022/11/18 11:49:49;;;;;;;14.73;10.30;;;2.20;99.90;;;;;;5071610;28;20253;-46
2022/11/18 11:52:28;;;;;;;12.60;9.73;;;2.40;99.90;;;;;;5053232;28;20203;-48
2022/11/18 11:55:03;;;;;;;12.80;10.27;;;3.00;99.90;;;;;;5071463;28;20576;-48
2022/11/18 11:57:41;;;;;;;12.85;10.93;;;2.40;99.90;;;;;;5071778;28;20195;-47
2022/11/18 12:00:13;;;;;;;12.45;9.85;;;2.50;99.90;;;;;;5071546;28;20190;-48
2022/11/18 12:02:56;;;;;;;12.82;9.90;;;2.80;99.90;;;;;;5071700;28;20322;-47
2022/11/18 12:05:29;;;;;;;12.00;9.65;;;2.80;99.90;;;;;;5053432;28;20652;-49
2022/11/18 12:07:59;;;;;;;11.07;9.45;;;2.80;99.90;;;;;;5072152;28;20274;-47
2022/11/18 12:10:31;;;;;;;12.98;9.95;;;3.10;99.90;;;;;;5071092;28;20620;-47
2022/11/18 12:13:20;;;;;;;10.45;8.15;;;3.10;99.90;;;;;;5072039;28;20215;-47
2022/11/18 12:15:56;;;;;;;15.52;9.25;;;3.20;99.90;;;;;;5071505;28;20214;-47
2022/11/18 12:18:30;;;;;;;10.77;8.52;;;3.00;99.90;;;;;;5072341;28;20610;-49
2022/11/18 12:20:56;;;;;;;12.57;8.73;;;3.10;99.90;;;;;;5071308;28;20683;-47
2022/11/18 12:23:25;;;;;;;10.75;7.93;;;3.30;99.90;;;;;;5070959;28;20231;-48
2022/11/18 12:26:32;;;;;;;10.40;8.02;;;3.20;99.80;;;;;;5071594;28;20684;-47
2022/11/18 12:29:22;;;;;;;11.93;7.72;;;2.80;99.70;;;;;;5070557;28;20206;-49
2022/11/18 12:31:50;;;;;;;11.68;8.45;;;3.00;99.40;;;;;;5071308;28;20202;-47
2022/11/18 12:34:30;;;;;;;9.75;7.60;;;2.70;99.30;;;;;;5053055;28;20223;-47
2022/11/18 12:36:57;;;;;;;9.38;8.30;;;2.30;99.50;;;;;;5052911;28;20286;-47
2022/11/18 12:39:59;;;;;;;9.52;8.05;;;2.10;99.80;;;;;;5070657;28;20202;-47
2022/11/18 12:45:58;;;;;;;8.63;7.72;;;2.50;99.90;;;;;;5050992;28;20203;-47
2022/11/18 12:48:46;;;;;;;8.70;7.60;;;2.20;99.90;;;;;;5050678;28;20807;-48
2022/11/18 12:51:43;;;;;;;8.35;7.05;;;2.20;99.90;;;;;;5050784;28;20710;-48
2022/11/18 12:54:24;;;;;;;9.90;7.72;;;2.10;99.90;;;;;;5050666;28;20215;-48
2022/11/18 12:56:50;;;;;;;8.18;7.38;;;2.20;99.90;;;;;;5050687;28;20219;-48
2022/11/18 12:59:25;;;;;;;8.63;6.60;;;2.10;99.90;;;;;;5049811;28;20196;-48
2022/11/18 13:02:19;;;;;;;10.10;7.93;;;2.10;99.90;;;;;;5050687;28;20223;-48
2022/11/18 13:04:45;;;;;;;9.00;7.53;;;2.30;99.90;;;;;;5050653;28;20188;-47
2022/11/18 13:10:20;;;;;;;9.70;7.93;;;2.00;99.90;;;;;;5032388;28;20256;-47
2022/11/18 13:12:46;;;;;;;8.85;7.50;;;1.90;99.90;;;;;;5050697;28;20212;-48
2022/11/18 13:18:08;;;;;;;14.70;7.85;;;2.00;99.90;;;;;;5050847;28;20223;-49
2022/11/18 13:20:36;;;;;;;10.05;7.90;;;2.00;99.90;;;;;;5050149;28;20560;-49
2022/11/18 13:26:05;;;;;;;10.73;8.27;;;1.90;99.90;;;;;;5051418;28;20208;-49
2022/11/18 13:28:38;;;;;;;10.27;8.43;;;1.20;99.90;;;;;;5051090;28;20204;-49
2022/11/18 13:31:13;;;;;;;8.63;7.72;;;1.80;99.90;;;;;;5053949;28;20563;-48
2022/11/18 13:33:40;;;;;;;10.05;8.00;;;1.70;99.90;;;;;;5054117;28;20218;-47
2022/11/18 13:36:17;;;;;;;9.90;7.63;;;1.60;99.90;;;;;;5054174;28;20574;-49